createdAt,value
2022-09-10T00:01:34.102Z,100869.88
2022-09-10T00:04:03.760Z,100871.53
2022-09-10T00:06:35.529Z,100866.19
2022-09-10T00:09:03.829Z,100864.50
2022-09-10T00:11:33.064Z,100860.88
2022-09-10T00:14:03.663Z,100854.88
2022-09-10T00:16:32.719Z,100847.94
2022-09-10T00:19:02.308Z,100854.03
2022-09-10T00:21:31.284Z,100848.09
2022-09-10T00:24:05.309Z,100848.00
2022-09-10T00:26:38.332Z,100855.09
2022-09-10T00:29:07.999Z,100855.94
2022-09-10T00:31:37.107Z,100856.00
2022-09-10T00:34:06.005Z,100859.47
2022-09-10T00:36:38.320Z,100854.34
2022-09-10T00:39:10.647Z,100844.81
2022-09-10T00:41:39.392Z,100847.56
2022-09-10T00:44:09.093Z,100843.41
2022-09-10T00:46:43.580Z,100842.50
2022-09-10T00:49:17.805Z,100846.88
2022-09-10T00:51:48.724Z,100852.16
2022-09-10T00:54:21.455Z,100853.13
2022-09-10T00:56:50.807Z,100843.72
2022-09-10T00:59:22.649Z,100840.19
2022-09-10T01:01:51.346Z,100834.28
2022-09-10T01:04:20.403Z,100833.34
2022-09-10T01:06:52.444Z,100833.44
2022-09-10T01:09:24.883Z,100832.75
2022-09-10T01:12:04.574Z,100837.19
2022-09-10T01:14:57.737Z,100826.06
2022-09-10T01:17:35.242Z,100831.88
2022-09-10T01:20:33.133Z,100823.28
2022-09-10T01:23:32.999Z,100815.38
2022-09-10T01:26:15.173Z,100826.59
2022-09-10T01:28:50.456Z,100822.19
2022-09-10T01:31:25.493Z,100822.97
2022-09-10T01:33:58.988Z,100823.72
2022-09-10T01:36:33.573Z,100817.66
2022-09-10T01:39:03.690Z,100809.81
2022-09-10T01:41:34.159Z,100811.53
2022-09-10T01:44:10.962Z,100811.69
2022-09-10T01:46:51.739Z,100820.28
2022-09-10T01:49:31.285Z,100812.53
2022-09-10T01:52:25.510Z,100807.47
2022-09-10T01:55:07.875Z,100810.06
2022-09-10T01:57:50.375Z,100809.22
2022-09-10T02:00:23.134Z,100808.31
2022-09-10T02:03:00.341Z,100803.09
2022-09-10T02:05:35.266Z,100809.97
2022-09-10T02:08:11.429Z,100807.38
2022-09-10T02:10:51.437Z,100809.28
2022-09-10T02:13:22.769Z,100810.97
2022-09-10T02:16:30.385Z,100806.75
2022-09-10T02:19:01.438Z,100804.16
2022-09-10T02:21:32.099Z,100801.69
2022-09-10T02:24:06.094Z,100798.25
2022-09-10T02:26:34.626Z,100801.84
2022-09-10T02:29:04.316Z,100801.16
2022-09-10T02:31:34.323Z,100794.22
2022-09-10T02:34:03.391Z,100793.53
2022-09-10T02:36:32.332Z,100799.69
2022-09-10T02:39:03.249Z,100798.91
2022-09-10T02:41:34.085Z,100802.44
2022-09-10T02:44:05.128Z,100802.53
2022-09-10T02:46:34.744Z,100794.00
2022-09-10T02:49:03.188Z,100792.31
2022-09-10T02:51:35.099Z,100797.69
2022-09-10T02:54:04.750Z,100795.97
2022-09-10T02:56:33.121Z,100794.31
2022-09-10T02:59:01.435Z,100799.69
2022-09-10T03:01:30.679Z,100792.91
2022-09-10T03:04:06.153Z,100800.06
2022-09-10T03:06:34.442Z,100800.09
2022-09-10T03:09:02.858Z,100804.63
2022-09-10T03:11:31.436Z,100808.25
2022-09-10T03:14:00.292Z,100803.16
2022-09-10T03:16:30.889Z,100800.78
2022-09-10T03:18:59.177Z,100806.22
2022-09-10T03:21:29.474Z,100811.44
2022-09-10T03:23:59.144Z,100805.53
2022-09-10T03:26:30.775Z,100805.59
2022-09-10T03:28:59.348Z,100813.41
2022-09-10T03:31:31.359Z,100806.53
2022-09-10T03:34:01.469Z,100809.25
2022-09-10T03:36:33.427Z,100811.97
2022-09-10T03:39:01.732Z,100809.47
2022-09-10T03:41:32.443Z,100811.22
2022-09-10T03:44:01.760Z,100822.56
2022-09-10T03:46:29.979Z,100811.38
2022-09-10T03:49:02.461Z,100812.22
2022-09-10T03:51:34.177Z,100812.41
2022-09-10T03:54:03.266Z,100811.00
2022-09-10T03:56:34.100Z,100815.47
2022-09-10T03:59:02.434Z,100816.44
2022-09-10T04:01:30.979Z,100813.00
2022-09-10T04:03:59.481Z,100815.50
2022-09-10T04:06:32.418Z,100820.69
2022-09-10T04:09:02.768Z,100814.47
2022-09-10T04:11:31.033Z,100813.56
2022-09-10T04:14:00.264Z,100818.69
2022-09-10T04:16:29.511Z,100816.06
2022-09-10T04:18:58.523Z,100815.16
2022-09-10T04:21:27.525Z,100814.25
2022-09-10T04:23:59.342Z,100809.03
2022-09-10T04:26:29.261Z,100811.56
2022-09-10T04:28:57.611Z,100814.16
2022-09-10T04:31:26.103Z,100816.78
2022-09-10T04:34:02.092Z,100817.72
2022-09-10T04:36:31.987Z,100821.19
2022-09-10T04:39:00.330Z,100818.63
2022-09-10T04:41:31.313Z,100817.72
2022-09-10T04:44:00.047Z,100813.56
2022-09-10T04:46:28.251Z,100824.06
2022-09-10T04:49:00.416Z,100817.06
2022-09-10T04:51:28.929Z,100823.16
2022-09-10T04:53:59.464Z,100828.34
2022-09-10T04:56:34.903Z,100832.59
2022-09-10T04:59:03.178Z,100825.59
2022-09-10T05:01:34.971Z,100829.00
2022-09-10T05:04:03.783Z,100825.41
2022-09-10T05:06:32.721Z,100823.69
2022-09-10T05:09:01.290Z,100829.00
2022-09-10T05:11:29.952Z,100829.06
2022-09-10T05:13:59.634Z,100836.03
2022-09-10T05:16:30.441Z,100839.69
2022-09-10T05:18:59.254Z,100844.00
2022-09-10T05:21:29.248Z,100840.50
2022-09-10T05:23:57.444Z,100847.38
2022-09-10T05:26:27.738Z,100847.38
2022-09-10T05:29:00.279Z,100847.34
2022-09-10T05:31:30.270Z,100841.41
2022-09-10T05:33:59.434Z,100844.91
2022-09-10T05:36:28.002Z,100840.50
2022-09-10T05:38:56.552Z,100842.97
2022-09-10T05:41:26.160Z,100842.81
2022-09-10T05:43:56.525Z,100840.06
2022-09-10T05:46:24.895Z,100840.78
2022-09-10T05:48:58.126Z,100847.44
2022-09-10T05:51:30.720Z,100856.03
2022-09-10T05:54:03.503Z,100855.03
2022-09-10T05:56:33.466Z,100861.94
2022-09-10T05:59:04.091Z,100864.34
2022-09-10T06:01:34.036Z,100865.97
2022-09-10T06:04:08.158Z,100855.22
2022-09-10T06:06:36.357Z,100855.09
2022-09-10T06:09:09.159Z,100862.63
2022-09-10T06:11:55.924Z,100859.66
2022-09-10T06:14:24.931Z,100862.91
2022-09-10T06:16:55.237Z,100868.69
2022-09-10T06:19:26.594Z,100867.53
2022-09-10T06:21:56.352Z,100874.16
2022-09-10T06:24:25.918Z,100876.16
2022-09-10T06:26:57.408Z,100886.16
2022-09-10T06:29:27.088Z,100884.53
2022-09-10T06:31:55.957Z,100890.88
2022-09-10T06:34:26.813Z,100888.41
2022-09-10T06:36:55.344Z,100882.53
2022-09-10T06:39:23.696Z,100887.22
2022-09-10T06:41:56.893Z,100884.66
2022-09-10T06:45:03.489Z,100885.06
2022-09-10T06:51:02.444Z,100895.81
2022-09-10T06:53:38.327Z,100895.94
2022-09-10T06:56:09.469Z,100898.59
2022-09-10T06:58:39.791Z,100899.38
2022-09-10T07:01:12.411Z,100902.38
2022-09-10T07:03:43.527Z,100905.81
2022-09-10T07:06:15.412Z,100902.53
2022-09-10T07:08:45.420Z,100900.06
2022-09-10T07:11:16.421Z,100916.81
2022-09-10T07:13:46.086Z,100907.53
2022-09-10T07:16:19.593Z,100906.34
2022-09-10T07:18:50.028Z,100915.84
2022-09-10T07:21:23.111Z,100899.44
2022-09-10T07:23:56.375Z,100903.03
2022-09-10T07:26:24.729Z,100904.28
2022-09-10T07:28:55.896Z,100900.59
2022-09-10T07:31:28.097Z,100897.63
2022-09-10T07:33:57.822Z,100908.94
2022-09-10T07:36:27.808Z,100887.19
2022-09-10T07:39:01.615Z,100885.81
2022-09-10T07:41:35.498Z,100885.72
2022-09-10T07:44:06.541Z,100887.53
2022-09-10T07:46:39.191Z,100892.84
2022-09-10T07:49:10.899Z,100877.75
2022-09-10T07:51:42.689Z,100882.78
2022-09-10T07:54:11.245Z,100879.63
2022-09-10T07:56:44.292Z,100875.25
2022-09-10T07:59:15.246Z,100882.69
2022-09-10T08:01:58.781Z,100882.78
2022-09-10T08:04:36.520Z,100888.31
2022-09-10T08:07:09.311Z,100886.34
2022-09-10T08:09:39.791Z,100890.13
2022-09-10T08:12:11.042Z,100905.91
2022-09-10T08:14:39.294Z,100897.69
2022-09-10T08:17:08.818Z,100895.91
2022-09-10T08:19:41.731Z,100900.84
2022-09-10T08:22:14.301Z,100908.28
2022-09-10T08:24:53.872Z,100905.44
2022-09-10T08:27:24.277Z,100904.94
2022-09-10T08:29:53.500Z,100908.00
2022-09-10T08:32:22.070Z,100914.69
2022-09-10T08:34:50.505Z,100912.38
2022-09-10T08:37:20.161Z,100914.22
2022-09-10T08:39:48.460Z,100915.03
2022-09-10T08:42:23.996Z,100910.03
2022-09-10T08:44:55.662Z,100913.78
2022-09-10T08:47:33.443Z,100903.66
2022-09-10T08:50:13.836Z,100908.16
2022-09-10T08:52:49.469Z,100906.75
2022-09-10T08:55:28.465Z,100898.09
2022-09-10T08:58:01.102Z,100902.47
2022-09-10T09:00:33.038Z,100896.47
2022-09-10T09:03:06.076Z,100897.34
2022-09-10T09:05:45.958Z,100910.75
2022-09-10T09:08:18.999Z,100904.56
2022-09-10T09:10:51.849Z,100905.66
2022-09-10T09:13:48.087Z,100904.69
2022-09-10T09:16:41.866Z,100901.56
2022-09-10T09:19:23.382Z,100906.91
2022-09-10T09:21:53.373Z,100907.06
2022-09-10T09:24:38.002Z,100907.78
2022-09-10T09:27:12.847Z,100900.16
2022-09-10T09:29:48.824Z,100890.47
2022-09-10T09:32:20.323Z,100897.25
2022-09-10T09:34:51.377Z,100913.00
2022-09-10T09:37:24.454Z,100905.59
2022-09-10T09:40:08.452Z,100907.94
2022-09-10T09:42:45.657Z,100905.13
2022-09-10T09:45:23.539Z,100907.66
2022-09-10T09:47:54.560Z,100913.59
2022-09-10T09:50:23.326Z,100914.72
2022-09-10T09:52:56.404Z,100913.59
2022-09-10T09:55:33.021Z,100905.56
2022-09-10T09:58:30.701Z,100902.31
2022-09-10T10:01:13.063Z,100901.34
2022-09-10T10:03:50.394Z,100897.69
2022-09-10T10:06:21.210Z,100901.22
2022-09-10T10:08:58.939Z,100899.16
2022-09-10T10:11:49.004Z,100902.00
2022-09-10T10:14:39.950Z,100909.69
2022-09-10T10:17:34.682Z,100918.66
2022-09-10T10:20:08.581Z,100919.63
2022-09-10T10:22:37.818Z,100928.03
2022-09-10T10:25:12.046Z,100919.88
2022-09-10T10:27:45.419Z,100917.22
2022-09-10T10:30:25.226Z,100928.75
2022-09-10T10:32:56.070Z,100936.81
2022-09-10T10:35:37.651Z,100934.56
2022-09-10T10:38:40.405Z,100934.72
2022-09-10T10:41:42.927Z,100933.34
2022-09-10T10:44:26.133Z,100932.78
2022-09-10T10:47:05.052Z,100935.78
2022-09-10T10:49:48.342Z,100939.78
2022-09-10T10:52:25.551Z,100933.59
2022-09-10T10:55:08.268Z,100919.88
2022-09-10T10:57:55.443Z,100924.16
2022-09-10T11:00:25.951Z,100932.09
2022-09-10T11:03:03.686Z,100935.84
2022-09-10T11:05:38.574Z,100926.69
2022-09-10T11:08:11.680Z,100919.94
2022-09-10T11:10:45.247Z,100922.94
2022-09-10T11:13:21.858Z,100919.03
2022-09-10T11:15:56.093Z,100926.47
2022-09-10T11:18:29.806Z,100932.25
2022-09-10T11:21:04.294Z,100921.44
2022-09-10T11:23:38.209Z,100916.25
2022-09-10T11:26:12.355Z,100917.22
2022-09-10T11:28:46.962Z,100911.50
2022-09-10T11:31:23.747Z,100907.31
2022-09-10T11:34:00.187Z,100899.34
2022-09-10T11:36:34.607Z,100894.88
2022-09-10T11:39:12.251Z,100901.69
2022-09-10T11:41:43.623Z,100900.00
2022-09-10T11:44:33.346Z,100899.81
2022-09-10T11:47:11.032Z,100895.88
2022-09-10T11:49:48.570Z,100894.63
2022-09-10T11:52:17.633Z,100892.91
2022-09-10T11:54:47.771Z,100888.03
2022-09-10T11:57:27.714Z,100884.88
2022-09-10T12:00:08.284Z,100882.88
2022-09-10T12:03:20.398Z,100886.38
2022-09-10T12:06:00.772Z,100887.59
2022-09-10T12:08:51.924Z,100895.19
2022-09-10T12:11:29.544Z,100886.72
2022-09-10T12:13:58.908Z,100893.03
2022-09-10T12:16:35.854Z,100896.50
2022-09-10T12:19:10.743Z,100895.91
2022-09-10T12:21:44.160Z,100887.75
2022-09-10T12:24:28.082Z,100887.03
2022-09-10T12:26:57.017Z,100887.06
2022-09-10T12:29:31.784Z,100892.53
2022-09-10T12:32:30.884Z,100898.50
2022-09-10T12:35:48.163Z,100894.88
2022-09-10T12:38:50.057Z,100903.72
2022-09-10T12:41:56.620Z,100904.09
2022-09-10T12:44:45.249Z,100905.53
2022-09-10T12:47:41.648Z,100903.84
2022-09-10T12:50:32.847Z,100907.63
2022-09-10T12:53:38.835Z,100895.16
2022-09-10T12:56:30.440Z,100888.59
2022-09-10T12:59:13.013Z,100890.97
2022-09-10T13:01:46.391Z,100886.94
2022-09-10T13:04:28.575Z,100881.22
2022-09-10T13:06:58.346Z,100886.06
2022-09-10T13:09:29.988Z,100891.94
2022-09-10T13:12:04.223Z,100888.72
2022-09-10T13:14:38.260Z,100887.91
2022-09-10T13:17:07.543Z,100883.44
2022-09-10T13:19:50.229Z,100878.41
2022-09-10T13:22:52.354Z,100879.66
2022-09-10T13:25:41.554Z,100878.47
2022-09-10T13:28:46.814Z,100878.00
2022-09-10T13:31:23.707Z,100882.53
2022-09-10T13:34:33.147Z,100885.63
2022-09-10T13:37:15.276Z,100876.47
2022-09-10T13:40:11.076Z,100878.09
2022-09-10T13:42:56.886Z,100883.69
2022-09-10T13:45:29.487Z,100876.84
2022-09-10T13:48:09.880Z,100870.72
2022-09-10T13:50:46.362Z,100863.00
2022-09-10T13:53:17.172Z,100868.59
2022-09-10T13:55:54.778Z,100867.53
2022-09-10T13:58:28.665Z,100862.94
2022-09-10T14:00:58.922Z,100869.50
2022-09-10T14:03:33.583Z,100870.09
2022-09-10T14:06:05.190Z,100864.97
2022-09-10T14:08:38.571Z,100869.03
2022-09-10T14:11:09.822Z,100865.75
2022-09-10T14:13:42.593Z,100864.94
2022-09-10T14:16:14.521Z,100860.19
2022-09-10T14:18:48.578Z,100870.31
2022-09-10T14:21:19.645Z,100857.31
2022-09-10T14:23:49.693Z,100847.63
2022-09-10T14:26:24.266Z,100849.13
2022-09-10T14:28:54.904Z,100845.22
2022-09-10T14:31:33.576Z,100847.88
2022-09-10T14:34:27.526Z,100850.44
2022-09-10T14:36:56.058Z,100836.06
2022-09-10T14:39:25.342Z,100837.88
2022-09-10T14:42:10.449Z,100834.22
2022-09-10T14:44:42.513Z,100843.59
2022-09-10T14:47:16.334Z,100837.91
2022-09-10T14:49:47.244Z,100847.09
2022-09-10T14:52:16.051Z,100846.25
2022-09-10T14:54:44.272Z,100840.50
2022-09-10T14:57:15.417Z,100835.13
2022-09-10T14:59:45.251Z,100824.50
2022-09-10T15:02:18.404Z,100828.66
2022-09-10T15:04:48.390Z,100834.66
2022-09-10T15:07:16.659Z,100837.56
2022-09-10T15:09:44.831Z,100841.50
2022-09-10T15:12:19.649Z,100834.50
2022-09-10T15:14:47.873Z,100835.63
2022-09-10T15:17:17.649Z,100830.97
2022-09-10T15:19:48.429Z,100830.50
2022-09-10T15:22:23.747Z,100825.19
2022-09-10T15:25:09.271Z,100830.50
2022-09-10T15:27:38.571Z,100821.44
2022-09-10T15:30:08.483Z,100825.75
2022-09-10T15:32:36.756Z,100828.28
2022-09-10T15:35:08.782Z,100825.78
2022-09-10T15:37:36.983Z,100837.81
2022-09-10T15:40:05.856Z,100827.09
2022-09-10T15:42:35.030Z,100826.88
2022-09-10T15:45:03.380Z,100822.44
2022-09-10T15:47:33.592Z,100825.75
2022-09-10T15:50:01.654Z,100820.59
2022-09-10T15:52:31.090Z,100809.16
2022-09-10T15:54:59.628Z,100818.22
2022-09-10T15:57:28.067Z,100818.06
2022-09-10T15:59:56.533Z,100811.09
2022-09-10T16:02:25.242Z,100814.47
2022-09-10T16:04:53.996Z,100821.84
2022-09-10T16:07:22.453Z,100822.38
2022-09-10T16:09:52.409Z,100814.81
2022-09-10T16:12:20.666Z,100820.91
2022-09-10T16:14:49.283Z,100824.81
2022-09-10T16:17:17.488Z,100826.75
2022-09-10T16:19:45.709Z,100826.19
2022-09-10T16:22:17.496Z,100836.63
2022-09-10T16:24:48.231Z,100835.28
2022-09-10T16:27:18.132Z,100824.91
2022-09-10T16:29:47.108Z,100844.63
2022-09-10T16:32:15.597Z,100840.34
2022-09-10T16:34:43.773Z,100843.19
2022-09-10T16:37:11.860Z,100836.53
2022-09-10T16:39:40.364Z,100840.88
2022-09-10T16:42:09.847Z,100842.47
2022-09-10T16:44:41.287Z,100832.38
2022-09-10T16:47:09.541Z,100833.84
2022-09-10T16:49:38.085Z,100832.56
2022-09-10T16:52:06.336Z,100833.69
2022-09-10T16:54:34.385Z,100827.34
2022-09-10T16:57:02.508Z,100832.66
2022-09-10T16:59:30.659Z,100830.13
2022-09-10T17:02:01.390Z,100828.56
2022-09-10T17:04:29.658Z,100830.50
2022-09-10T17:06:58.538Z,100831.09
2022-09-10T17:09:26.957Z,100841.53
2022-09-10T17:11:55.261Z,100846.00
2022-09-10T17:14:23.795Z,100851.84
2022-09-10T17:16:52.248Z,100853.66
2022-09-10T17:19:26.445Z,100851.00
2022-09-10T17:21:56.909Z,100850.59
2022-09-10T17:24:26.957Z,100851.91
2022-09-10T17:26:56.237Z,100846.88
2022-09-10T17:29:26.711Z,100842.31
2022-09-10T17:31:57.461Z,100836.78
2022-09-10T17:34:28.300Z,100846.63
2022-09-10T17:36:56.942Z,100850.47
2022-09-10T17:39:28.298Z,100850.69
2022-09-10T17:41:56.751Z,100848.53
2022-09-10T17:44:25.797Z,100853.06
2022-09-10T17:46:55.236Z,100856.88
2022-09-10T17:49:24.507Z,100855.56
2022-09-10T17:51:54.519Z,100848.97
2022-09-10T17:54:23.588Z,100852.28
2022-09-10T17:56:51.888Z,100853.69
2022-09-10T17:59:21.277Z,100848.88
2022-09-10T18:01:50.633Z,100850.50
2022-09-10T18:04:21.633Z,100850.63
2022-09-10T18:06:52.352Z,100853.56
2022-09-10T18:09:23.647Z,100858.63
2022-09-10T18:11:51.850Z,100862.47
2022-09-10T18:14:21.625Z,100858.94
2022-09-10T18:16:51.213Z,100861.44
2022-09-10T18:19:19.833Z,100854.94
2022-09-10T18:21:49.079Z,100848.28
2022-09-10T18:24:19.168Z,100854.38
2022-09-10T18:26:50.355Z,100865.88
2022-09-10T18:29:20.707Z,100853.44
2022-09-10T18:31:51.264Z,100858.34
2022-09-10T18:34:23.188Z,100862.22
2022-09-10T18:36:53.545Z,100866.56
2022-09-10T18:39:22.859Z,100872.06
2022-09-10T18:41:53.456Z,100867.44
2022-09-10T18:44:24.013Z,100867.13
2022-09-10T18:46:53.869Z,100863.16
2022-09-10T18:49:24.430Z,100871.69
2022-09-10T18:51:54.272Z,100875.66
2022-09-10T18:54:23.730Z,100870.28
2022-09-10T18:56:54.135Z,100884.94
2022-09-10T18:59:24.277Z,100880.81
2022-09-10T19:01:55.990Z,100882.88
2022-09-10T19:04:26.114Z,100878.03
2022-09-10T19:06:55.192Z,100883.66
2022-09-10T19:09:25.737Z,100884.78
2022-09-10T19:11:59.196Z,100888.47
2022-09-10T19:14:29.887Z,100891.38
2022-09-10T19:16:59.645Z,100894.16
2022-09-10T19:19:29.960Z,100896.31
2022-09-10T19:22:01.246Z,100905.25
2022-09-10T19:24:50.911Z,100904.50
2022-09-10T19:27:19.591Z,100908.06
2022-09-10T19:29:49.962Z,100901.88
2022-09-10T19:32:19.865Z,100905.25
2022-09-10T19:34:50.929Z,100908.06
2022-09-10T19:37:19.659Z,100897.00
2022-09-10T19:39:48.028Z,100907.84
2022-09-10T19:42:16.494Z,100903.75
2022-09-10T19:44:46.305Z,100901.41
2022-09-10T19:47:14.730Z,100904.47
2022-09-10T19:49:43.237Z,100899.59
2022-09-10T19:52:11.874Z,100901.31
2022-09-10T19:54:40.058Z,100899.53
2022-09-10T19:57:08.278Z,100905.78
2022-09-10T19:59:36.503Z,100909.63
2022-09-10T20:02:06.480Z,100908.78
2022-09-10T20:04:36.128Z,100907.94
2022-09-10T20:07:04.513Z,100913.94
2022-09-10T20:09:35.680Z,100912.31
2022-09-10T20:12:06.332Z,100917.69
2022-09-10T20:14:34.521Z,100917.88
2022-09-10T20:17:03.158Z,100912.69
2022-09-10T20:19:32.848Z,100907.44
2022-09-10T20:22:01.120Z,100913.53
2022-09-10T20:24:29.370Z,100919.56
2022-09-10T20:26:57.778Z,100919.19
2022-09-10T20:29:26.525Z,100920.19
2022-09-10T20:31:54.738Z,100920.03
2022-09-10T20:34:23.563Z,100918.16
2022-09-10T20:36:53.365Z,100914.69
2022-09-10T20:39:25.303Z,100915.72
2022-09-10T20:41:53.852Z,100918.34
2022-09-10T20:44:23.132Z,100907.66
2022-09-10T20:46:52.012Z,100909.25
2022-09-10T20:49:21.438Z,100910.94
2022-09-10T20:51:49.664Z,100907.59
2022-09-10T20:54:20.597Z,100914.59
2022-09-10T20:56:49.166Z,100907.94
2022-09-10T20:59:19.335Z,100902.97
2022-09-10T21:01:50.897Z,100903.16
2022-09-10T21:04:19.971Z,100907.44
2022-09-10T21:06:48.168Z,100906.25
2022-09-10T21:09:16.549Z,100910.03
2022-09-10T21:11:46.251Z,100914.13
2022-09-10T21:14:15.148Z,100905.44
2022-09-10T21:16:43.578Z,100904.28
2022-09-10T21:19:13.700Z,100904.09
2022-09-10T21:21:45.050Z,100912.75
2022-09-10T21:24:15.429Z,100909.53
2022-09-10T21:26:45.927Z,100906.38
2022-09-10T21:29:16.464Z,100896.25
2022-09-10T21:31:45.585Z,100901.66
2022-09-10T21:34:14.683Z,100901.50
2022-09-10T21:36:43.885Z,100896.06
2022-09-10T21:39:16.351Z,100887.13
2022-09-10T21:41:48.194Z,100889.75
2022-09-10T21:44:19.940Z,100883.38
2022-09-10T21:46:48.927Z,100886.47
2022-09-10T21:49:18.065Z,100886.75
2022-09-10T21:51:46.775Z,100886.94
2022-09-10T21:54:18.667Z,100889.75
2022-09-10T21:56:49.185Z,100883.91
2022-09-10T21:59:17.551Z,100885.69
2022-09-10T22:01:47.964Z,100889.06
2022-09-10T22:04:21.731Z,100891.78
2022-09-10T22:06:51.434Z,100894.31
2022-09-10T22:09:20.042Z,100894.81
2022-09-10T22:11:51.954Z,100887.59
2022-09-10T22:14:22.680Z,100890.03
2022-09-10T22:16:51.779Z,100890.41
2022-09-10T22:19:23.070Z,100894.34
2022-09-10T22:21:53.953Z,100895.94
2022-09-10T22:24:22.376Z,100898.38
2022-09-10T22:26:52.022Z,100900.34
2022-09-10T22:29:21.495Z,100888.44
2022-09-10T22:31:50.346Z,100887.88
2022-09-10T22:34:20.901Z,100886.38
2022-09-10T22:36:50.238Z,100889.06
2022-09-10T22:39:20.907Z,100878.09
2022-09-10T22:41:50.000Z,100892.25
2022-09-10T22:44:20.384Z,100895.13
2022-09-10T22:46:49.145Z,100887.56
2022-09-10T22:49:18.663Z,100888.59
2022-09-10T22:51:47.146Z,100884.34
2022-09-10T22:54:16.668Z,100890.63
2022-09-10T22:56:45.616Z,100892.16
2022-09-10T22:59:15.621Z,100895.44
2022-09-10T23:01:48.319Z,100900.38
2022-09-10T23:04:17.550Z,100902.09
2022-09-10T23:06:45.750Z,100904.91
2022-09-10T23:09:15.973Z,100894.50
2022-09-10T23:11:45.345Z,100893.19
2022-09-10T23:14:15.575Z,100898.09
2022-09-10T23:16:48.505Z,100904.50
2022-09-10T23:19:20.616Z,100898.41
2022-09-10T23:21:51.238Z,100900.22
2022-09-10T23:24:22.083Z,100907.91
2022-09-10T23:26:50.316Z,100904.31
2022-09-10T23:29:18.681Z,100907.72
2022-09-10T23:31:48.944Z,100903.97
2022-09-10T23:34:19.566Z,100897.84
2022-09-10T23:36:49.289Z,100894.19
2022-09-10T23:39:19.880Z,100892.81
2022-09-10T23:41:48.100Z,100901.25
2022-09-10T23:44:17.007Z,100897.94
2022-09-10T23:46:45.968Z,100904.22
2022-09-10T23:49:16.079Z,100896.47
2022-09-10T23:51:44.430Z,100894.09
2022-09-10T23:54:13.360Z,100904.84
2022-09-10T23:56:43.274Z,100895.22
2022-09-10T23:59:12.107Z,100884.03
